Time;durP1;ratioP1;P1;durP2;ratioP2;P2;SDS_P1;SDS_P2;PMS_P1;PMS_P2;Temp;Humidity;BMP_temperature;BMP_pressure;BME280_temperature;BME280_humidity;BME280_pressure;Samples;Min_cycle;Max_cycle;Signal;HPM_P1;HPM_P2
2023/01/18 00:01:33;;;;;;;7.25;4.60;;;10.60;84.90;;;;;;5045160;28;20496;-75
2023/01/18 00:03:59;;;;;;;7.78;4.82;;;10.60;84.90;;;;;;5046745;28;20051;-78
2023/01/18 00:06:26;;;;;;;7.00;4.88;;;10.60;84.80;;;;;;5045596;28;20017;-76
2023/01/18 00:08:53;;;;;;;6.97;4.60;;;10.70;84.90;;;;;;5046687;28;20055;-76
2023/01/18 00:11:18;;;;;;;7.80;4.72;;;10.70;85.00;;;;;;5046394;28;20041;-76
2023/01/18 00:13:45;;;;;;;6.95;4.57;;;10.70;84.90;;;;;;5046220;28;20154;-76
2023/01/18 00:16:13;;;;;;;7.93;5.32;;;10.60;84.90;;;;;;5045216;28;20063;-76
2023/01/18 00:18:38;;;;;;;7.93;4.88;;;10.70;85.00;;;;;;5045155;28;20025;-76
2023/01/18 00:21:06;;;;;;;6.95;4.70;;;10.60;85.40;;;;;;5045297;28;20028;-76
2023/01/18 00:23:32;;;;;;;12.63;4.93;;;10.60;85.00;;;;;;5044960;28;20078;-77
2023/01/18 00:26:06;;;;;;;7.07;4.70;;;10.60;85.00;;;;;;5046487;28;20025;-76
2023/01/18 00:28:33;;;;;;;7.57;5.03;;;10.60;84.90;;;;;;5046259;28;20481;-75
2023/01/18 00:30:58;;;;;;;8.20;5.07;;;10.60;84.90;;;;;;5045010;28;20567;-75
2023/01/18 00:33:24;;;;;;;6.70;4.38;;;10.60;85.00;;;;;;5045784;28;20037;-75
2023/01/18 00:35:58;;;;;;;7.25;4.57;;;10.60;85.00;;;;;;5046342;28;20059;-76
2023/01/18 00:38:24;;;;;;;7.18;4.60;;;10.60;84.90;;;;;;5045038;28;20446;-76
2023/01/18 00:40:50;;;;;;;6.95;4.97;;;10.60;85.00;;;;;;5046088;28;20029;-77
2023/01/18 00:45:59;;;;;;;6.90;4.60;;;10.50;84.90;;;;;;5046245;28;20032;-76
2023/01/18 00:48:25;;;;;;;7.03;4.72;;;10.60;84.90;;;;;;5046284;28;20025;-78
2023/01/18 00:50:50;;;;;;;7.05;5.25;;;10.60;85.00;;;;;;5044820;28;20120;-76
2023/01/18 00:53:16;;;;;;;7.28;4.90;;;10.60;85.00;;;;;;5046240;28;20037;-76
2023/01/18 00:55:41;;;;;;;7.43;4.90;;;10.60;85.00;;;;;;5044955;28;20133;-76
2023/01/18 00:58:06;;;;;;;8.20;4.97;;;10.60;84.90;;;;;;5046121;28;20029;-76
2023/01/18 01:00:32;;;;;;;6.80;4.35;;;10.60;84.90;;;;;;5046083;28;20044;-76
2023/01/18 01:02:58;;;;;;;7.15;4.70;;;10.60;84.90;;;;;;5048911;28;20565;-76
2023/01/18 01:08:17;;;;;;;7.10;4.68;;;10.60;84.90;;;;;;5033635;28;20048;-76
2023/01/18 01:10:48;;;;;;;7.45;4.78;;;10.60;84.90;;;;;;5048673;28;20083;-76
2023/01/18 01:27:03;;;;;;;6.78;4.38;;;10.60;84.90;;;;;;5049768;28;20083;-76
2023/01/18 01:29:28;;;;;;;6.65;4.75;;;10.60;84.90;;;;;;5049762;28;20766;-76
2023/01/18 01:31:53;;;;;;;6.75;4.60;;;10.60;84.90;;;;;;5049874;28;20069;-76
2023/01/18 01:34:19;;;;;;;7.53;4.57;;;10.60;84.90;;;;;;5049405;28;20040;-75
2023/01/18 01:36:44;;;;;;;7.22;4.50;;;10.60;84.90;;;;;;5048576;28;20449;-76
2023/01/18 01:39:10;;;;;;;7.85;4.70;;;10.60;85.40;;;;;;5043059;28;20040;-76
2023/01/18 01:41:36;;;;;;;7.43;4.63;;;10.60;84.90;;;;;;5031625;28;20057;-77
2023/01/18 01:44:32;;;;;;;6.43;4.32;;;10.60;84.90;;;;;;5029221;28;20029;-76
2023/01/18 01:47:20;;;;;;;7.57;4.68;;;10.60;84.90;;;;;;5029220;28;20444;-75
2023/01/18 01:49:51;;;;;;;7.68;4.78;;;10.60;84.90;;;;;;5027910;28;20112;-76
2023/01/18 01:52:29;;;;;;;7.32;4.70;;;10.60;84.90;;;;;;5029033;28;20577;-76
2023/01/18 01:55:11;;;;;;;6.90;4.53;;;10.60;84.90;;;;;;5027719;28;20083;-76
2023/01/18 01:57:42;;;;;;;7.47;4.80;;;10.50;84.90;;;;;;5027705;28;20083;-75
2023/01/18 02:00:11;;;;;;;7.13;4.50;;;10.60;84.90;;;;;;5029136;28;20116;-77
2023/01/18 02:02:38;;;;;;;7.35;4.95;;;10.60;85.00;;;;;;5028747;28;20040;-77
2023/01/18 02:05:06;;;;;;;6.72;4.68;;;10.50;84.90;;;;;;5061451;28;20030;-76
2023/01/18 02:07:32;;;;;;;7.47;4.72;;;10.50;84.80;;;;;;5061235;28;20032;-77
2023/01/18 02:09:59;;;;;;;9.95;5.28;;;10.50;84.80;;;;;;5028340;28;20080;-76
2023/01/18 02:12:25;;;;;;;7.55;4.93;;;10.60;84.80;;;;;;5027762;28;20127;-77
2023/01/18 02:14:52;;;;;;;7.00;4.85;;;10.60;84.90;;;;;;5060913;28;20033;-76
2023/01/18 02:17:27;;;;;;;7.40;4.60;;;10.50;84.80;;;;;;5029164;28;20470;-77
2023/01/18 02:20:07;;;;;;;7.05;5.00;;;10.60;84.90;;;;;;5027653;28;20037;-75
2023/01/18 02:22:46;;;;;;;7.78;5.05;;;10.50;84.80;;;;;;5028417;28;20041;-76
2023/01/18 02:25:21;;;;;;;7.18;4.63;;;10.50;84.80;;;;;;5027928;28;20041;-76
2023/01/18 02:28:08;;;;;;;6.80;4.72;;;10.50;84.80;;;;;;5027505;28;20398;-76
2023/01/18 02:31:08;;;;;;;7.20;4.70;;;10.50;84.80;;;;;;5027138;28;20032;-76
2023/01/18 02:33:39;;;;;;;6.70;4.47;;;10.50;84.80;;;;;;5028363;28;20686;-75
2023/01/18 02:36:05;;;;;;;7.18;4.72;;;10.50;84.90;;;;;;5027678;28;20402;-76
2023/01/18 02:38:43;;;;;;;6.70;4.63;;;10.50;84.80;;;;;;5060516;28;20128;-76
2023/01/18 02:46:29;;;;;;;7.80;5.28;;;10.50;84.90;;;;;;5028520;28;20109;-75
2023/01/18 02:47:04;;;;;;;7.47;4.90;;;10.50;84.80;;;;;;5028593;28;20488;-77
2023/01/18 02:49:31;;;;;;;6.72;4.72;;;10.50;84.80;;;;;;5028352;28;20267;-76
2023/01/18 02:52:06;;;;;;;7.40;4.85;;;10.50;84.90;;;;;;5060375;28;20025;-75
2023/01/18 02:54:37;;;;;;;7.72;4.95;;;10.50;84.90;;;;;;5027938;28;20144;-76
2023/01/18 02:57:07;;;;;;;7.53;4.90;;;10.50;85.40;;;;;;5028361;28;20029;-76
2023/01/18 02:59:42;;;;;;;6.93;4.90;;;10.50;84.90;;;;;;5028452;28;20030;-76
2023/01/18 03:02:18;;;;;;;7.30;5.07;;;10.50;84.80;;;;;;5028076;28;20390;-75
2023/01/18 03:04:53;;;;;;;7.32;4.95;;;10.50;84.80;;;;;;5027979;28;20034;-76
2023/01/18 03:07:47;;;;;;;7.38;4.90;;;10.50;84.80;;;;;;5060081;28;20441;-75
2023/01/18 03:10:13;;;;;;;7.35;4.80;;;10.50;84.80;;;;;;5028045;28;20033;-76
2023/01/18 03:12:52;;;;;;;7.25;4.85;;;10.50;84.80;;;;;;5059841;28;20065;-77
2023/01/18 03:15:32;;;;;;;8.60;5.32;;;10.50;85.30;;;;;;5027855;28;20175;-76
2023/01/18 03:18:26;;;;;;;6.93;4.60;;;10.50;84.80;;;;;;5027279;28;20025;-77
2023/01/18 03:20:54;;;;;;;7.88;5.10;;;10.50;84.80;;;;;;5022702;28;20037;-77
2023/01/18 03:23:37;;;;;;;7.30;4.88;;;10.50;84.80;;;;;;5032166;28;20028;-76
2023/01/18 03:26:15;;;;;;;7.25;4.78;;;10.50;84.80;;;;;;5054741;28;20020;-77
2023/01/18 03:34:49;;;;;;;7.55;5.00;;;10.50;84.80;;;;;;5047371;28;20039;-77
2023/01/18 03:37:31;;;;;;;;;;;10.50;84.80;;;;;;5047960;28;20508;-77
2023/01/18 03:40:03;;;;;;;7.57;4.88;;;10.50;84.80;;;;;;5046240;28;20411;-76
2023/01/18 03:42:52;;;;;;;8.02;5.13;;;10.50;84.80;;;;;;5046940;28;20032;-76
2023/01/18 03:45:29;;;;;;;7.82;4.93;;;10.50;84.80;;;;;;5045605;28;20474;-76
2023/01/18 03:47:54;;;;;;;7.05;4.80;;;10.50;84.80;;;;;;5047716;28;20029;-79
2023/01/18 03:50:31;;;;;;;7.45;5.13;;;10.50;84.80;;;;;;5046112;28;20055;-77
2023/01/18 03:53:00;;;;;;;6.97;4.70;;;10.50;84.80;;;;;;5046931;28;20067;-77
2023/01/18 03:55:49;;;;;;;7.45;5.07;;;10.50;84.70;;;;;;5047230;28;20032;-79
2023/01/18 03:58:18;;;;;;;7.20;4.90;;;10.50;84.70;;;;;;5047316;28;20020;-79
2023/01/18 04:00:44;;;;;;;7.63;5.00;;;10.50;84.70;;;;;;5046076;28;20405;-76
2023/01/18 04:03:09;;;;;;;8.27;5.57;;;10.50;84.70;;;;;;5045489;28;20063;-77
2023/01/18 04:05:35;;;;;;;7.93;5.03;;;10.50;84.70;;;;;;5046891;28;20021;-76
2023/01/18 04:08:00;;;;;;;7.70;5.30;;;10.50;84.60;;;;;;5047132;28;20056;-77
2023/01/18 04:10:26;;;;;;;7.57;5.00;;;10.50;84.60;;;;;;5046197;28;20033;-76
2023/01/18 04:12:52;;;;;;;7.95;5.45;;;10.50;84.60;;;;;;5046673;28;20167;-79
2023/01/18 04:15:18;;;;;;;7.28;5.13;;;10.50;84.60;;;;;;5046590;28;20044;-78
2023/01/18 04:17:43;;;;;;;7.53;5.30;;;10.50;84.60;;;;;;5046857;28;20029;-80
2023/01/18 04:20:10;;;;;;;7.30;5.28;;;10.50;84.70;;;;;;5046532;28;20031;-79
2023/01/18 04:22:35;;;;;;;8.57;5.57;;;10.50;84.70;;;;;;5046743;28;20025;-78
2023/01/18 04:25:01;;;;;;;12.93;5.28;;;10.50;84.60;;;;;;5045053;28;20566;-78
2023/01/18 04:27:26;;;;;;;8.20;5.50;;;10.50;84.60;;;;;;5045676;28;20053;-79
2023/01/18 04:29:52;;;;;;;7.28;4.95;;;10.50;84.60;;;;;;5045239;28;20024;-78
2023/01/18 04:32:18;;;;;;;7.35;4.97;;;10.50;84.70;;;;;;5046521;28;20032;-77
2023/01/18 04:34:43;;;;;;;7.18;5.00;;;10.50;84.60;;;;;;5045249;28;20447;-79
2023/01/18 04:37:09;;;;;;;7.35;5.18;;;10.50;84.60;;;;;;5045726;28;20408;-77
2023/01/18 04:39:35;;;;;;;8.00;5.07;;;10.50;84.80;;;;;;5047984;28;20507;-80
2023/01/18 04:42:01;;;;;;;7.45;5.20;;;10.50;84.70;;;;;;5050462;28;20087;-79
2023/01/18 04:44:26;;;;;;;7.60;5.20;;;10.50;84.70;;;;;;5048038;28;20046;-81
2023/01/18 04:46:52;;;;;;;8.15;5.03;;;10.50;84.70;;;;;;5048101;28;20052;-77
2023/01/18 04:49:17;;;;;;;7.22;5.22;;;10.50;84.60;;;;;;5047719;28;20032;-77
2023/01/18 04:51:44;;;;;;;8.27;5.75;;;10.50;84.60;;;;;;5045494;28;20029;-78
2023/01/18 04:54:11;;;;;;;7.97;5.45;;;10.40;84.60;;;;;;5047666;28;20111;-80
2023/01/18 04:56:37;;;;;;;7.60;5.22;;;10.40;84.60;;;;;;5047996;28;20021;-78
2023/01/18 04:59:03;;;;;;;8.05;5.35;;;10.40;84.60;;;;;;5047904;28;20541;-78
2023/01/18 05:01:28;;;;;;;7.80;5.05;;;10.50;84.70;;;;;;5048506;28;20389;-79
2023/01/18 05:03:55;;;;;;;7.70;5.85;;;10.40;84.60;;;;;;5049405;28;20029;-79
2023/01/18 05:06:20;;;;;;;8.00;5.45;;;10.40;84.60;;;;;;5047288;28;20517;-78
2023/01/18 05:08:46;;;;;;;7.38;5.30;;;10.50;84.60;;;;;;5045471;28;20037;-78
2023/01/18 05:11:15;;;;;;;7.53;5.55;;;10.50;84.60;;;;;;5045926;28;20039;-78
2023/01/18 05:13:42;;;;;;;7.93;5.28;;;10.40;84.60;;;;;;5046614;28;20029;-76
2023/01/18 05:16:13;;;;;;;8.55;5.55;;;10.40;84.60;;;;;;5046188;28;20036;-76
2023/01/18 05:18:38;;;;;;;8.82;5.63;;;10.40;84.60;;;;;;5049268;28;20025;-77
2023/01/18 05:23:33;;;;;;;7.80;5.30;;;10.40;84.40;;;;;;5065307;28;20057;-80
2023/01/18 05:25:59;;;;;;;8.80;5.63;;;10.40;84.40;;;;;;5067140;28;20024;-80
2023/01/18 05:28:26;;;;;;;7.47;5.68;;;10.50;84.30;;;;;;5068770;28;20032;-79
2023/01/18 05:30:54;;;;;;;7.63;5.43;;;10.40;84.30;;;;;;5069295;28;20029;-80
2023/01/18 05:33:21;;;;;;;7.88;5.85;;;10.40;84.30;;;;;;5066439;28;20078;-79
2023/01/18 05:35:54;;;;;;;7.88;5.38;;;10.40;84.30;;;;;;5066097;28;20101;-78
2023/01/18 05:38:21;;;;;;;8.57;5.93;;;10.40;84.30;;;;;;5067100;28;20020;-80
2023/01/18 05:40:51;;;;;;;8.02;5.90;;;10.40;84.30;;;;;;5066902;28;20172;-80
2023/01/18 05:43:18;;;;;;;8.60;6.10;;;10.40;84.30;;;;;;5069323;28;20024;-79
2023/01/18 05:45:43;;;;;;;8.27;5.93;;;10.40;84.30;;;;;;5068117;28;20032;-79
2023/01/18 05:48:10;;;;;;;8.38;5.75;;;10.40;84.30;;;;;;5070233;28;20017;-79
2023/01/18 05:50:39;;;;;;;9.43;6.03;;;10.40;84.30;;;;;;5071475;28;20477;-79
2023/01/18 05:53:05;;;;;;;8.32;6.10;;;10.40;84.20;;;;;;5071778;28;20569;-81
2023/01/18 05:55:30;;;;;;;9.25;5.90;;;10.40;84.20;;;;;;5074551;28;20033;-78
2023/01/18 05:57:56;;;;;;;8.63;5.90;;;10.40;84.20;;;;;;5070148;28;20029;-81
2023/01/18 06:00:22;;;;;;;8.00;5.70;;;10.40;84.20;;;;;;5071096;28;20544;-79
2023/01/18 06:02:47;;;;;;;8.25;5.80;;;10.40;84.30;;;;;;5069552;28;20511;-79
2023/01/18 06:05:13;;;;;;;7.70;5.40;;;10.40;84.40;;;;;;5073630;28;20024;-78
2023/01/18 06:07:40;;;;;;;7.82;5.57;;;10.40;84.40;;;;;;5071601;28;20032;-79
2023/01/18 06:10:07;;;;;;;8.10;5.90;;;10.40;84.40;;;;;;5068673;28;20032;-78
2023/01/18 06:12:32;;;;;;;9.38;5.82;;;10.40;84.40;;;;;;5071214;28;20107;-81
2023/01/18 06:14:58;;;;;;;8.20;5.72;;;10.40;84.40;;;;;;5069559;28;20116;-77
2023/01/18 06:17:23;;;;;;;12.95;7.90;;;10.40;84.40;;;;;;5070971;28;20447;-78
2023/01/18 06:19:49;;;;;;;10.80;7.40;;;10.40;82.60;;;;;;5071442;28;20463;-78
2023/01/18 06:22:14;;;;;;;10.15;6.85;;;10.40;82.10;;;;;;5069462;28;20024;-79
2023/01/18 06:24:40;;;;;;;15.32;7.20;;;10.40;82.00;;;;;;5072034;28;20021;-78
2023/01/18 06:27:06;;;;;;;10.38;6.22;;;10.40;82.50;;;;;;5069737;28;20051;-78
2023/01/18 06:29:32;;;;;;;11.15;7.18;;;10.40;83.00;;;;;;5070614;28;20043;-78
2023/01/18 06:31:58;;;;;;;10.15;6.78;;;10.40;83.00;;;;;;5071235;28;20465;-78
2023/01/18 06:34:23;;;;;;;9.02;6.47;;;10.40;83.10;;;;;;5075860;28;20048;-80
2023/01/18 06:36:49;;;;;;;9.02;6.85;;;10.40;83.10;;;;;;5074629;28;20496;-79
2023/01/18 06:39:14;;;;;;;9.60;7.40;;;10.40;83.30;;;;;;5074279;28;20028;-79
2023/01/18 06:41:40;;;;;;;10.32;7.00;;;10.40;83.30;;;;;;5073542;28;20035;-81
2023/01/18 06:44:05;;;;;;;10.60;7.40;;;10.40;83.40;;;;;;5069717;28;20599;-76
2023/01/18 06:46:31;;;;;;;11.30;7.10;;;10.40;83.50;;;;;;5053746;28;20025;-79
2023/01/18 06:48:56;;;;;;;9.45;6.88;;;10.40;83.50;;;;;;5053684;28;20033;-80
2023/01/18 06:51:22;;;;;;;12.13;6.88;;;10.40;83.40;;;;;;5055886;28;20029;-80
2023/01/18 06:53:48;;;;;;;10.05;7.00;;;10.40;83.50;;;;;;5059064;28;20400;-79
2023/01/18 06:56:14;;;;;;;9.27;6.72;;;10.40;83.50;;;;;;5055135;28;20108;-80
2023/01/18 06:58:40;;;;;;;9.27;6.97;;;10.40;83.50;;;;;;5050644;28;20021;-80
2023/01/18 07:01:06;;;;;;;10.15;6.50;;;10.40;83.60;;;;;;5052260;28;20031;-80
2023/01/18 07:03:32;;;;;;;9.60;6.70;;;10.40;83.60;;;;;;5052931;28;20115;-80
2023/01/18 07:06:00;;;;;;;9.75;6.47;;;10.40;83.70;;;;;;5059803;28;20028;-80
2023/01/18 07:08:26;;;;;;;9.32;6.90;;;10.40;83.70;;;;;;5052899;28;20166;-80
2023/01/18 07:10:52;;;;;;;9.15;6.65;;;10.40;84.30;;;;;;5055479;28;20021;-79
2023/01/18 07:13:19;;;;;;;9.70;6.68;;;10.40;83.80;;;;;;5053375;28;20110;-79
2023/01/18 07:15:45;;;;;;;10.40;7.50;;;10.30;83.80;;;;;;5057221;28;20426;-79
2023/01/18 07:18:10;;;;;;;10.13;6.53;;;10.40;83.90;;;;;;5058035;28;20033;-78
2023/01/18 07:20:36;;;;;;;8.13;6.15;;;10.40;83.90;;;;;;5057784;28;20112;-79
2023/01/18 07:23:03;;;;;;;9.52;6.60;;;10.30;83.90;;;;;;5054997;28;20473;-79
2023/01/18 07:25:29;;;;;;;10.55;7.18;;;10.40;83.90;;;;;;5056597;28;20039;-79
2023/01/18 07:27:57;;;;;;;9.85;6.85;;;10.40;83.90;;;;;;5059258;28;20053;-79
2023/01/18 07:30:23;;;;;;;9.50;6.97;;;10.40;84.00;;;;;;5057408;28;20315;-79
2023/01/18 07:32:50;;;;;;;8.95;6.68;;;10.30;83.90;;;;;;5057671;28;20029;-79
2023/01/18 07:35:18;;;;;;;9.98;6.80;;;10.40;84.00;;;;;;5056676;28;20120;-78
2023/01/18 07:37:54;;;;;;;9.02;6.53;;;10.30;84.00;;;;;;5054500;28;20385;-79
2023/01/18 07:40:20;;;;;;;9.25;6.47;;;10.40;84.00;;;;;;5053711;28;20021;-79
2023/01/18 07:42:47;;;;;;;9.77;7.22;;;10.40;84.00;;;;;;5060844;28;20021;-80
2023/01/18 07:45:13;;;;;;;9.77;6.57;;;10.40;84.10;;;;;;5056162;28;20505;-80
2023/01/18 07:47:42;;;;;;;9.05;6.43;;;10.40;84.00;;;;;;5054917;28;20021;-79
2023/01/18 07:50:08;;;;;;;8.85;6.57;;;10.40;84.00;;;;;;5054255;28;20029;-77
2023/01/18 07:52:34;;;;;;;9.80;7.00;;;10.40;84.10;;;;;;5052601;28;20076;-80
2023/01/18 07:54:59;;;;;;;10.23;6.63;;;10.40;84.00;;;;;;5051983;28;20111;-80
2023/01/18 07:57:25;;;;;;;8.88;6.38;;;10.40;84.10;;;;;;5054534;28;20075;-79
2023/01/18 07:59:50;;;;;;;8.98;6.80;;;10.40;84.10;;;;;;5055717;28;20449;-79
2023/01/18 08:02:16;;;;;;;9.73;6.55;;;10.40;84.00;;;;;;5057359;28;20021;-79
2023/01/18 08:04:42;;;;;;;9.52;6.97;;;10.40;84.00;;;;;;5056032;28;20390;-79
2023/01/18 08:07:07;;;;;;;9.48;6.47;;;10.40;84.00;;;;;;5054222;28;20021;-79
2023/01/18 08:09:33;;;;;;;9.20;6.55;;;10.40;84.00;;;;;;5056035;28;20056;-79
2023/01/18 08:11:59;;;;;;;9.48;6.57;;;10.30;84.00;;;;;;5055506;28;20029;-79
2023/01/18 08:14:26;;;;;;;9.23;6.80;;;10.30;84.10;;;;;;5053468;28;20048;-79
2023/01/18 08:16:51;;;;;;;9.13;6.80;;;10.40;84.20;;;;;;5053255;28;20519;-79
2023/01/18 08:19:16;;;;;;;10.73;7.30;;;10.30;84.10;;;;;;5054666;28;20119;-80
2023/01/18 08:21:43;;;;;;;9.70;7.00;;;10.30;84.10;;;;;;5054258;28;20029;-76
2023/01/18 08:24:08;;;;;;;9.45;6.88;;;10.30;84.10;;;;;;5051944;28;20394;-79
2023/01/18 08:26:34;;;;;;;9.75;7.20;;;10.40;84.10;;;;;;5054896;28;20025;-77
2023/01/18 08:29:00;;;;;;;9.77;6.65;;;10.40;84.10;;;;;;5051063;28;20024;-79
2023/01/18 08:31:26;;;;;;;8.80;6.32;;;10.30;84.00;;;;;;5054163;28;20051;-79
2023/01/18 08:33:51;;;;;;;9.05;6.70;;;10.30;84.00;;;;;;5055702;28;20470;-79
2023/01/18 08:36:20;;;;;;;9.82;7.13;;;10.40;84.10;;;;;;5054984;28;20086;-80
2023/01/18 08:38:50;;;;;;;8.88;6.70;;;10.40;84.00;;;;;;5052997;28;20499;-79
2023/01/18 08:41:18;;;;;;;8.52;6.57;;;10.40;84.00;;;;;;5052558;28;20114;-80
2023/01/18 08:43:46;;;;;;;9.05;6.80;;;10.30;84.00;;;;;;5054150;28;20041;-79
2023/01/18 08:46:11;;;;;;;9.07;6.80;;;10.40;84.00;;;;;;5054461;28;20039;-76
2023/01/18 08:48:37;;;;;;;9.45;6.72;;;10.40;84.00;;;;;;5052036;28;20485;-79
2023/01/18 08:51:03;;;;;;;10.45;7.13;;;10.40;83.90;;;;;;5053770;28;20032;-78
2023/01/18 08:53:30;;;;;;;10.52;7.00;;;10.40;83.90;;;;;;5052593;28;20018;-79
2023/01/18 08:55:55;;;;;;;8.57;6.75;;;10.50;83.90;;;;;;5054764;28;20021;-79
2023/01/18 08:58:21;;;;;;;8.73;6.40;;;10.50;83.90;;;;;;5054949;28;20025;-77
2023/01/18 09:00:49;;;;;;;8.77;6.32;;;10.50;83.90;;;;;;5053996;28;20052;-79
2023/01/18 09:03:18;;;;;;;8.82;6.63;;;10.50;83.80;;;;;;5054836;28;20021;-79
2023/01/18 09:05:44;;;;;;;9.20;6.80;;;10.40;83.80;;;;;;5054029;28;20104;-80
2023/01/18 09:08:10;;;;;;;8.68;6.45;;;10.50;83.90;;;;;;5051879;28;20045;-80
2023/01/18 09:10:37;;;;;;;8.43;6.50;;;10.50;83.90;;;;;;5052031;28;20036;-79
2023/01/18 09:13:03;;;;;;;8.90;6.32;;;10.50;83.90;;;;;;5051224;28;20056;-79
2023/01/18 09:15:28;;;;;;;10.50;6.90;;;10.50;83.90;;;;;;5053828;28;20028;-80
2023/01/18 09:17:54;;;;;;;9.50;6.97;;;10.50;83.90;;;;;;5050896;28;20025;-79
2023/01/18 09:20:19;;;;;;;9.43;6.82;;;10.40;83.80;;;;;;5053806;28;20083;-79
2023/01/18 09:22:46;;;;;;;8.60;6.20;;;10.50;83.90;;;;;;5053805;28;20029;-79
2023/01/18 09:25:12;;;;;;;8.65;6.22;;;10.50;83.90;;;;;;5055210;28;20021;-79
2023/01/18 09:27:37;;;;;;;10.63;6.90;;;10.50;83.90;;;;;;5054457;28;20079;-79
2023/01/18 09:30:05;;;;;;;8.38;6.28;;;10.50;83.80;;;;;;5058261;28;20035;-79
2023/01/18 09:32:30;;;;;;;8.93;6.50;;;10.50;83.90;;;;;;5054792;28;20035;-79
2023/01/18 09:34:56;;;;;;;9.20;6.70;;;10.50;83.80;;;;;;5055351;28;20103;-78
2023/01/18 09:37:21;;;;;;;9.63;6.72;;;10.50;83.80;;;;;;5055509;28;20032;-79
2023/01/18 09:39:48;;;;;;;10.15;7.30;;;10.50;83.90;;;;;;5057251;28;20028;-78
2023/01/18 09:42:20;;;;;;;9.05;6.38;;;10.50;83.90;;;;;;5057118;28;20025;-79
2023/01/18 09:44:50;;;;;;;8.82;6.47;;;10.50;83.90;;;;;;5055738;28;20473;-79
2023/01/18 09:47:24;;;;;;;9.55;6.95;;;10.50;83.90;;;;;;5055407;28;20063;-79
2023/01/18 09:49:58;;;;;;;8.55;6.28;;;10.50;83.80;;;;;;5054747;28;20025;-79
2023/01/18 09:52:42;;;;;;;8.85;6.60;;;10.50;83.80;;;;;;5056155;28;20086;-79
2023/01/18 09:55:23;;;;;;;8.27;6.25;;;10.50;83.80;;;;;;5055022;28;20029;-79
2023/01/18 09:58:30;;;;;;;9.02;6.60;;;10.50;83.80;;;;;;5053766;28;20029;-77
2023/01/18 10:01:20;;;;;;;8.55;6.13;;;10.50;83.70;;;;;;5054828;28;20036;-79
2023/01/18 10:03:58;;;;;;;9.40;6.63;;;10.50;83.70;;;;;;5054922;28;20061;-78
2023/01/18 10:06:27;;;;;;;9.48;6.55;;;10.50;83.60;;;;;;5055421;28;20031;-79
2023/01/18 10:09:06;;;;;;;9.43;7.00;;;10.40;83.60;;;;;;5054910;28;20031;-79
2023/01/18 10:11:47;;;;;;;9.40;6.60;;;10.50;83.60;;;;;;5054635;28;20033;-79
2023/01/18 10:14:28;;;;;;;;;;;10.60;83.70;;;;;;5054456;28;20025;-77
2023/01/18 10:16:59;;;;;;;9.10;6.40;;;10.60;83.60;;;;;;5053307;28;19905;-79
2023/01/18 10:19:28;;;;;;;9.25;6.40;;;10.60;83.50;;;;;;5056842;28;20033;-80
2023/01/18 10:22:03;;;;;;;10.10;6.70;;;10.60;83.50;;;;;;5060638;28;20040;-79
2023/01/18 10:24:45;;;;;;;8.95;6.35;;;10.60;83.40;;;;;;5055150;28;20020;-80
2023/01/18 10:27:26;;;;;;;9.23;6.68;;;10.60;83.40;;;;;;5059225;28;20025;-80
2023/01/18 10:30:19;;;;;;;8.93;6.32;;;10.60;83.30;;;;;;5055779;28;20021;-79
2023/01/18 10:32:53;;;;;;;7.93;5.90;;;10.70;83.40;;;;;;5055007;28;20028;-79
2023/01/18 10:35:30;;;;;;;8.18;6.13;;;10.70;83.40;;;;;;5058593;28;20025;-80
2023/01/18 10:37:59;;;;;;;8.68;6.20;;;10.70;83.30;;;;;;5059446;28;20459;-80
2023/01/18 10:40:25;;;;;;;9.55;6.78;;;10.70;83.30;;;;;;5057078;28;20067;-79
2023/01/18 10:42:53;;;;;;;8.88;6.30;;;10.60;83.30;;;;;;5058983;28;20025;-80
2023/01/18 10:45:26;;;;;;;8.68;6.45;;;10.70;83.30;;;;;;5054743;28;20013;-79
2023/01/18 10:47:54;;;;;;;8.63;6.45;;;10.70;83.40;;;;;;5057597;28;20025;-80
2023/01/18 10:50:36;;;;;;;9.27;6.38;;;10.70;83.40;;;;;;5054616;28;20110;-79
2023/01/18 10:53:35;;;;;;;8.77;6.75;;;10.70;83.40;;;;;;5058061;28;20029;-79
2023/01/18 10:56:03;;;;;;;9.05;6.57;;;10.70;83.30;;;;;;5052944;28;20025;-79
2023/01/18 10:58:50;;;;;;;9.65;6.57;;;10.70;83.20;;;;;;5058224;28;20052;-79
2023/01/18 11:01:26;;;;;;;8.70;6.25;;;10.70;83.30;;;;;;5055298;28;20033;-79
2023/01/18 11:04:05;;;;;;;9.15;6.60;;;10.80;83.30;;;;;;5052839;28;20025;-79
2023/01/18 11:06:44;;;;;;;8.05;6.13;;;10.70;83.20;;;;;;5053785;28;20017;-80
2023/01/18 11:10:08;;;;;;;8.98;6.72;;;10.80;83.20;;;;;;5057429;28;20497;-79
2023/01/18 11:12:40;;;;;;;9.00;6.40;;;10.80;83.00;;;;;;5001491;28;20038;-79
2023/01/18 11:15:12;;;;;;;8.48;6.25;;;10.80;83.00;;;;;;4996394;28;20080;-80
2023/01/18 11:17:54;;;;;;;8.57;6.22;;;10.80;82.90;;;;;;5037511;28;20133;-80
2023/01/18 11:20:22;;;;;;;8.88;6.03;;;10.80;82.80;;;;;;5060414;28;20029;-80
2023/01/18 11:22:57;;;;;;;8.57;6.38;;;10.80;82.80;;;;;;5056628;28;20119;-79
2023/01/18 11:25:24;;;;;;;8.80;6.32;;;10.80;82.80;;;;;;5056543;28;20025;-79
2023/01/18 11:27:49;;;;;;;8.85;6.13;;;10.90;82.80;;;;;;5060379;28;20508;-79
2023/01/18 11:30:21;;;;;;;11.07;6.32;;;10.90;82.70;;;;;;5060361;28;20079;-79
2023/01/18 11:32:47;;;;;;;8.02;6.03;;;10.90;82.80;;;;;;5059028;28;20021;-79
2023/01/18 11:35:30;;;;;;;8.77;6.15;;;10.90;82.70;;;;;;5059436;28;20025;-79
2023/01/18 11:38:01;;;;;;;9.00;6.40;;;10.90;82.60;;;;;;5059434;28;20021;-79
2023/01/18 11:40:32;;;;;;;7.82;5.90;;;10.90;82.60;;;;;;5056884;28;20038;-79
2023/01/18 11:43:17;;;;;;;8.75;6.35;;;10.90;82.60;;;;;;5059360;28;20055;-79
2023/01/18 11:45:53;;;;;;;8.50;6.10;;;11.00;82.60;;;;;;5057925;28;20468;-79
2023/01/18 11:48:41;;;;;;;7.97;5.63;;;11.00;82.60;;;;;;5059165;28;20024;-79
2023/01/18 11:51:14;;;;;;;8.93;5.93;;;10.90;82.50;;;;;;5057859;28;20031;-78
2023/01/18 11:53:49;;;;;;;9.65;6.65;;;10.90;82.60;;;;;;5055379;28;20450;-79
2023/01/18 11:56:29;;;;;;;9.32;6.55;;;11.00;82.50;;;;;;5056920;28;20023;-79
2023/01/18 11:58:55;;;;;;;8.90;6.63;;;11.00;82.40;;;;;;5055118;28;20021;-79
2023/01/18 12:01:36;;;;;;;8.95;6.10;;;11.00;82.50;;;;;;5057412;28;20029;-79
2023/01/18 12:04:32;;;;;;;8.68;6.18;;;11.00;82.50;;;;;;5057113;28;20013;-79
2023/01/18 12:07:28;;;;;;;8.18;5.88;;;11.00;82.50;;;;;;5057304;28;20036;-79
2023/01/18 12:09:55;;;;;;;9.20;6.40;;;10.90;82.50;;;;;;5058468;28;20028;-80
2023/01/18 12:12:21;;;;;;;8.60;6.15;;;11.00;82.50;;;;;;5056343;28;20036;-78
2023/01/18 12:14:47;;;;;;;8.32;6.18;;;11.00;82.60;;;;;;5056706;28;20481;-79
2023/01/18 12:17:43;;;;;;;8.48;5.88;;;11.00;82.70;;;;;;5056173;28;20025;-79
2023/01/18 12:20:19;;;;;;;9.27;6.43;;;11.00;83.10;;;;;;5055018;28;20417;-79
2023/01/18 12:23:21;;;;;;;8.55;6.15;;;11.00;82.50;;;;;;5055184;28;20029;-79
2023/01/18 12:26:11;;;;;;;8.43;6.30;;;11.00;82.40;;;;;;5046177;28;20040;-79
2023/01/18 12:29:04;;;;;;;8.03;5.53;;;11.00;82.50;;;;;;5056071;28;20362;-79
2023/01/18 12:31:47;;;;;;;18.73;6.70;;;11.10;82.30;;;;;;5055076;28;20029;-79
2023/01/18 12:34:38;;;;;;;9.25;6.10;;;11.10;82.00;;;;;;5053730;28;20047;-82
2023/01/18 12:37:41;;;;;;;8.30;6.07;;;11.20;82.00;;;;;;5024995;28;20055;-82
2023/01/18 12:40:40;;;;;;;8.57;6.03;;;11.10;81.90;;;;;;5053032;28;20489;-80
2023/01/18 12:43:08;;;;;;;9.25;6.05;;;11.20;82.00;;;;;;5052146;28;20554;-82
2023/01/18 12:45:36;;;;;;;8.00;5.82;;;11.10;82.00;;;;;;5052659;28;20435;-79
2023/01/18 12:48:47;;;;;;;7.85;5.70;;;11.10;81.90;;;;;;5053409;28;20021;-80
2023/01/18 12:51:16;;;;;;;8.05;5.63;;;11.10;82.00;;;;;;5052718;28;20450;-80
2023/01/18 12:53:53;;;;;;;8.40;5.72;;;11.10;82.00;;;;;;5054660;28;20021;-79
2023/01/18 12:56:32;;;;;;;8.10;5.45;;;11.20;82.10;;;;;;5054436;28;20060;-80
2023/01/18 12:59:07;;;;;;;8.50;5.50;;;11.20;82.10;;;;;;5057671;28;20029;-80
2023/01/18 13:01:40;;;;;;;8.55;5.90;;;11.10;82.00;;;;;;5056950;28;20326;-80
2023/01/18 13:04:15;;;;;;;8.13;5.85;;;11.20;81.90;;;;;;5057232;28;20017;-80
2023/01/18 13:06:41;;;;;;;8.77;6.43;;;11.20;82.00;;;;;;5058222;28;20018;-79
2023/01/18 13:09:14;;;;;;;7.90;5.57;;;11.20;81.80;;;;;;5055842;28;20028;-80
2023/01/18 13:11:42;;;;;;;9.13;6.05;;;11.20;81.90;;;;;;5055730;28;20040;-80
2023/01/18 13:14:24;;;;;;;8.77;6.00;;;11.20;81.80;;;;;;5056152;28;20021;-82
2023/01/18 13:16:53;;;;;;;8.10;5.93;;;11.20;82.10;;;;;;5056975;28;20520;-81
2023/01/18 13:19:35;;;;;;;7.68;5.20;;;11.20;81.70;;;;;;5057555;28;20099;-79
2023/01/18 13:22:07;;;;;;;8.05;5.68;;;11.20;81.70;;;;;;5056079;28;20029;-80
2023/01/18 13:24:46;;;;;;;8.02;5.97;;;11.20;81.70;;;;;;5056040;28;20116;-80
2023/01/18 13:27:14;;;;;;;7.63;5.70;;;11.20;81.60;;;;;;5056913;28;20021;-80
2023/01/18 13:29:42;;;;;;;7.95;5.50;;;11.20;81.70;;;;;;5055198;28;20078;-80
2023/01/18 13:32:29;;;;;;;8.18;5.38;;;11.30;81.70;;;;;;5055499;28;20048;-80
2023/01/18 13:34:57;;;;;;;7.88;5.53;;;11.20;81.70;;;;;;5055246;28;20031;-80
2023/01/18 13:37:47;;;;;;;7.40;5.35;;;11.20;81.70;;;;;;5055297;28;20032;-80